Time;durP1;ratioP1;P1;durP2;ratioP2;P2;SDS_P1;SDS_P2;PMS_P1;PMS_P2;Temp;Humidity;BMP_temperature;BMP_pressure;BME280_temperature;BME280_humidity;BME280_pressure;Samples;Min_cycle;Max_cycle;Signal;HPM_P1;HPM_P2
2022/08/19 00:00:06;;;;;;;88.57;42.88;;;;;;;-145.69;100.00;70660.25;5075995;28;20202;-78
2022/08/19 00:02:32;;;;;;;90.55;42.75;;;;;;;-145.69;100.00;70662.22;5075864;28;20241;-76
2022/08/19 00:04:59;;;;;;;84.63;42.00;;;;;;;-145.69;100.00;70658.25;5075362;28;20199;-77
2022/08/19 00:07:25;;;;;;;88.72;43.20;;;;;;;-145.69;100.00;70656.25;5075920;28;20206;-75
2022/08/19 00:09:53;;;;;;;100.43;45.20;;;;;;;-145.69;100.00;70658.25;5075860;28;20198;-78
2022/08/19 00:12:20;;;;;;;109.97;44.67;;;;;;;-145.69;100.00;70658.25;5075378;28;20281;-77
2022/08/19 00:14:46;;;;;;;111.63;47.97;;;;;;;-145.69;100.00;70654.28;5075817;28;20199;-77
2022/08/19 00:17:13;;;;;;;110.30;46.35;;;;;;;-145.69;100.00;70650.28;5075626;28;20227;-76
2022/08/19 00:19:40;;;;;;;117.05;46.83;;;;;;;-145.69;100.00;70650.28;5075083;28;20194;-78
2022/08/19 00:22:08;;;;;;;119.10;47.10;;;;;;;-145.69;100.00;70648.31;5075704;28;20285;-76
2022/08/19 00:24:35;;;;;;;120.72;49.00;;;;;;;-145.69;100.00;70644.31;5074245;28;20233;-76
2022/08/19 00:27:03;;;;;;;122.35;48.50;;;;;;;-145.69;100.00;70642.34;5075595;28;20202;-75
2022/08/19 00:29:30;;;;;;;112.40;46.92;;;;;;;-145.69;100.00;70648.31;5075367;28;20207;-75
2022/08/19 00:31:58;;;;;;;118.25;46.78;;;;;;;-145.69;100.00;70658.25;5075364;28;20226;-76
2022/08/19 00:34:27;;;;;;;112.53;47.10;;;;;;;-145.69;100.00;70666.22;5074106;28;20204;-75
2022/08/19 00:36:54;;;;;;;113.05;46.30;;;;;;;-145.69;100.00;70664.22;5074525;28;20329;-76
2022/08/19 00:39:21;;;;;;;112.30;46.05;;;;;;;-145.69;100.00;70662.22;5074585;28;20603;-76
2022/08/19 00:41:49;;;;;;;106.07;45.25;;;;;;;-145.69;100.00;70664.22;5074792;28;20210;-76
2022/08/19 00:44:20;;;;;;;108.45;45.78;;;;;;;-145.69;100.00;70660.25;5074212;28;20653;-78
2022/08/19 00:46:49;;;;;;;105.50;45.03;;;;;;;-145.69;100.00;70670.19;5074483;28;20203;-75
2022/08/19 00:49:19;;;;;;;103.47;43.15;;;;;;;-145.69;100.00;70674.16;5074240;28;20195;-75
2022/08/19 00:51:49;;;;;;;106.47;44.67;;;;;;;-145.69;100.00;70662.22;5074875;28;20206;-78
2022/08/19 00:54:17;;;;;;;94.50;43.03;;;;;;;-145.69;100.00;70672.19;5075081;28;20230;-77
2022/08/19 00:56:45;;;;;;;100.35;42.95;;;;;;;-145.69;100.00;70674.16;5074767;28;20230;-75
2022/08/19 00:59:12;;;;;;;95.50;42.03;;;;;;;-145.69;100.00;70672.19;5073993;28;20199;-76
2022/08/19 01:01:42;;;;;;;89.45;39.72;;;;;;;-145.69;100.00;70672.19;5074732;28;20604;-75
2022/08/19 01:04:09;;;;;;;90.25;38.35;;;;;;;-145.69;100.00;70666.22;5073983;28;20195;-78
2022/08/19 01:06:37;;;;;;;86.85;38.28;;;;;;;-145.69;100.00;70682.13;5063566;28;20200;-77
2022/08/19 01:09:04;;;;;;;85.15;37.05;;;;;;;-145.69;100.00;70680.13;5053888;28;20261;-77
2022/08/19 01:11:32;;;;;;;77.45;36.10;;;;;;;-145.69;100.00;70688.09;5054699;28;20204;-77
2022/08/19 01:13:59;;;;;;;82.13;37.58;;;;;;;-145.69;100.00;70694.06;5054455;28;20227;-78
2022/08/19 01:16:29;;;;;;;77.82;36.50;;;;;;;-145.69;100.00;70690.09;5054484;28;20234;-78
2022/08/19 01:18:57;;;;;;;85.18;37.85;;;;;;;-145.69;100.00;70694.06;5072651;28;20205;-78
2022/08/19 01:21:31;;;;;;;80.72;36.22;;;;;;;-145.69;100.00;70686.09;5073800;28;20280;-77
2022/08/19 01:24:00;;;;;;;82.50;37.40;;;;;;;-145.69;100.00;70690.09;5074070;28;20198;-79
2022/08/19 01:26:28;;;;;;;78.70;37.35;;;;;;;-145.69;100.00;70682.13;5073576;28;20550;-77
2022/08/19 01:28:56;;;;;;;83.93;38.90;;;;;;;-145.69;100.00;70684.13;5072816;28;20206;-78
2022/08/19 01:31:26;;;;;;;85.30;38.75;;;;;;;-145.69;100.00;70688.09;5073104;28;20198;-78
2022/08/19 01:33:54;;;;;;;91.90;39.78;;;;;;;-145.69;100.00;70684.13;5074239;28;20199;-76
2022/08/19 01:36:25;;;;;;;89.63;39.38;;;;;;;-145.69;100.00;70690.09;5074034;28;20609;-78
2022/08/19 01:38:52;;;;;;;87.10;39.80;;;;;;;-145.69;100.00;70692.06;5074166;28;20306;-77
2022/08/19 01:41:20;;;;;;;88.93;38.72;;;;;;;-145.69;100.00;70690.09;5073948;28;20604;-76
2022/08/19 01:43:46;;;;;;;92.72;40.03;;;;;;;-145.69;100.00;70698.03;5073936;28;20675;-76
2022/08/19 01:46:13;;;;;;;77.00;36.38;;;;;;;-145.69;100.00;70688.09;5073730;28;20543;-77
2022/08/19 01:48:43;;;;;;;78.00;36.75;;;;;;;-145.69;100.00;70694.06;5072231;28;20608;-78
2022/08/19 01:51:10;;;;;;;90.90;40.03;;;;;;;-145.69;100.00;70690.09;5073693;28;20207;-76
2022/08/19 01:53:37;;;;;;;90.90;40.42;;;;;;;-145.69;100.00;70696.06;5073568;28;20654;-78
2022/08/19 01:56:05;;;;;;;93.63;42.55;;;;;;;-145.69;100.00;70698.03;5073797;28;20207;-76
2022/08/19 01:58:38;;;;;;;89.38;41.00;;;;;;;-145.69;100.00;70704.00;5073685;28;20199;-78
2022/08/19 02:01:06;;;;;;;84.00;38.40;;;;;;;-145.69;100.00;70702.03;5073711;28;20225;-76
2022/08/19 02:03:34;;;;;;;90.38;39.08;;;;;;;-145.69;100.00;70694.06;5073505;28;20203;-77
2022/08/19 02:06:02;;;;;;;88.53;39.28;;;;;;;-145.69;100.00;70698.03;5073476;28;20201;-78
2022/08/19 02:08:30;;;;;;;86.40;38.90;;;;;;;-145.69;100.00;70702.03;5073642;28;20226;-77
2022/08/19 02:10:57;;;;;;;89.20;38.78;;;;;;;-145.69;100.00;70704.00;5073601;28;20210;-77
2022/08/19 02:13:24;;;;;;;86.50;38.60;;;;;;;-145.69;100.00;70702.03;5073567;28;20577;-76
2022/08/19 02:15:52;;;;;;;79.82;36.72;;;;;;;-145.69;100.00;70702.03;5073292;28;20645;-77
2022/08/19 02:18:19;;;;;;;93.13;39.45;;;;;;;-145.69;100.00;70704.00;5072909;28;20226;-76
2022/08/19 02:20:46;;;;;;;79.65;36.17;;;;;;;-145.69;100.00;70704.00;5073237;28;20210;-75
2022/08/19 02:23:14;;;;;;;84.32;37.30;;;;;;;-145.69;100.00;70698.03;5073467;28;20225;-76
2022/08/19 02:25:42;;;;;;;91.90;37.10;;;;;;;-145.69;100.00;70696.06;5073171;28;20198;-76
2022/08/19 02:28:08;;;;;;;88.40;38.63;;;;;;;-145.69;100.00;70694.06;5073288;28;20577;-77
2022/08/19 02:30:35;;;;;;;85.60;37.95;;;;;;;-145.69;100.00;70706.00;5073152;28;20202;-76
2022/08/19 02:33:03;;;;;;;88.43;37.70;;;;;;;-145.69;100.00;70709.97;5073037;28;20203;-77
2022/08/19 02:35:29;;;;;;;92.97;36.90;;;;;;;-145.69;100.00;70709.97;5073271;28;20202;-76
2022/08/19 02:40:40;;;;;;;84.03;34.60;;;;;;;-145.69;100.00;70723.91;5073171;28;20202;-77
2022/08/19 02:43:08;;;;;;;87.43;37.45;;;;;;;-145.69;100.00;70721.91;5073043;28;20213;-76
2022/08/19 02:45:36;;;;;;;85.65;35.75;;;;;;;-145.69;100.00;70713.97;5072928;28;20210;-76
2022/08/19 02:48:05;;;;;;;87.75;35.88;;;;;;;-145.69;100.00;70717.94;5072492;28;20230;-76
2022/08/19 02:50:31;;;;;;;102.18;40.13;;;;;;;-145.69;100.00;70725.91;5072842;28;20199;-76
2022/08/19 02:52:58;;;;;;;102.90;39.28;;;;;;;-145.69;100.00;70721.91;5072938;28;20565;-76
2022/08/19 02:55:25;;;;;;;97.40;43.38;;;;;;;-145.69;100.00;70721.91;5071772;28;20442;-76
2022/08/19 02:57:51;;;;;;;81.43;34.88;;;;;;;-145.69;100.00;70719.94;5072592;28;20226;-76
2022/08/19 03:00:18;;;;;;;94.57;37.00;;;;;;;-145.69;100.00;70725.91;5072742;28;20206;-76
2022/08/19 03:02:46;;;;;;;85.25;37.00;;;;;;;-145.69;100.00;70725.91;5072803;28;20202;-77
2022/08/19 03:05:14;;;;;;;82.68;35.25;;;;;;;-145.69;100.00;70721.91;5072942;28;20207;-76
2022/08/19 03:07:40;;;;;;;98.18;36.72;;;;;;;-145.69;100.00;70727.88;5070712;28;20201;-78
2022/08/19 03:10:08;;;;;;;90.07;37.15;;;;;;;-145.69;100.00;70713.97;5072107;28;20199;-78
2022/08/19 03:12:36;;;;;;;104.82;38.92;;;;;;;-145.69;100.00;70711.97;5072191;28;20292;-77
2022/08/19 03:15:04;;;;;;;86.55;35.58;;;;;;;-145.69;100.00;70709.97;5063582;28;20200;-78
2022/08/19 03:17:30;;;;;;;82.22;34.30;;;;;;;-145.69;100.00;70702.03;5052723;28;20234;-77
2022/08/19 03:19:57;;;;;;;90.90;35.67;;;;;;;-145.69;100.00;70702.03;5060534;28;20194;-76
2022/08/19 03:22:25;;;;;;;83.28;35.13;;;;;;;-145.69;100.00;70704.00;5072085;28;20194;-76
2022/08/19 03:24:51;;;;;;;96.03;36.53;;;;;;;-145.69;100.00;70706.00;5072084;28;20293;-75
2022/08/19 03:27:18;;;;;;;80.53;34.10;;;;;;;-145.69;100.00;70713.97;5071985;28;20207;-77
2022/08/19 03:29:45;;;;;;;89.05;34.30;;;;;;;-145.69;100.00;70711.97;5072017;28;20688;-77
2022/08/19 03:32:12;;;;;;;82.72;33.33;;;;;;;-145.69;100.00;70711.97;5072110;28;20255;-77
2022/08/19 03:34:39;;;;;;;96.65;36.35;;;;;;;-145.69;100.00;70721.91;5071904;28;20218;-76
2022/08/19 03:37:08;;;;;;;90.03;35.83;;;;;;;-145.69;100.00;70713.97;5071825;28;20235;-76
2022/08/19 03:39:37;;;;;;;89.18;35.17;;;;;;;-145.69;100.00;70723.91;5071860;28;20195;-76
2022/08/19 03:42:05;;;;;;;96.75;37.33;;;;;;;-145.69;100.00;70725.91;5071812;28;20206;-77
2022/08/19 03:44:32;;;;;;;88.43;37.55;;;;;;;-145.69;100.00;70727.88;5072551;28;20640;-75
2022/08/19 03:47:00;;;;;;;95.43;37.45;;;;;;;-145.69;100.00;70715.94;5072254;28;20635;-75
2022/08/19 03:49:30;;;;;;;79.90;33.35;;;;;;;-145.69;100.00;70725.91;5072396;28;20210;-76
2022/08/19 03:52:00;;;;;;;93.32;38.63;;;;;;;-145.69;100.00;70723.91;5072380;28;20203;-75
2022/08/19 03:54:27;;;;;;;92.30;38.28;;;;;;;-145.69;100.00;70721.91;5072262;28;20621;-77
2022/08/19 03:56:57;;;;;;;101.80;38.72;;;;;;;-145.69;100.00;70725.91;5072428;28;20601;-77
2022/08/19 03:59:26;;;;;;;97.68;38.85;;;;;;;-145.69;100.00;70709.97;5072466;28;20210;-77
2022/08/19 04:01:53;;;;;;;93.78;36.42;;;;;;;-145.69;100.00;70725.91;5072368;28;20565;-77
2022/08/19 04:04:19;;;;;;;88.30;33.97;;;;;;;-145.69;100.00;70721.91;5072142;28;20657;-76
2022/08/19 04:06:47;;;;;;;92.63;38.08;;;;;;;-145.69;100.00;70711.97;5072112;28;20688;-76
2022/08/19 04:09:13;;;;;;;86.05;36.03;;;;;;;-145.69;100.00;70717.94;5071851;28;20191;-76
2022/08/19 04:11:41;;;;;;;84.25;36.80;;;;;;;-145.69;100.00;70719.94;5072617;28;20202;-77
2022/08/19 04:14:10;;;;;;;98.03;38.60;;;;;;;-145.69;100.00;70719.94;5075734;28;20199;-76
2022/08/19 04:16:37;;;;;;;97.75;37.90;;;;;;;-145.69;100.00;70721.91;5075722;28;20202;-76
2022/08/19 04:19:06;;;;;;;106.82;39.28;;;;;;;-145.69;100.00;70719.94;5075439;28;20276;-76
2022/08/19 04:21:32;;;;;;;108.00;39.75;;;;;;;-145.69;100.00;70719.94;5075734;28;20257;-76
2022/08/19 04:23:59;;;;;;;112.78;40.58;;;;;;;-145.69;100.00;70719.94;5075707;28;20203;-77
2022/08/19 04:26:28;;;;;;;101.07;39.78;;;;;;;-145.69;100.00;70721.91;5075588;28;20206;-76
2022/08/19 04:28:55;;;;;;;101.20;40.05;;;;;;;-145.69;100.00;70721.91;5075587;28;20203;-76
2022/08/19 04:31:25;;;;;;;104.75;40.00;;;;;;;-145.69;100.00;70723.91;5075354;28;20764;-75
2022/08/19 04:33:52;;;;;;;104.22;39.38;;;;;;;-145.69;100.00;70727.88;5073713;28;20229;-76
2022/08/19 04:36:21;;;;;;;110.55;40.83;;;;;;;-145.69;100.00;70729.88;5075025;28;20206;-77
2022/08/19 04:38:47;;;;;;;99.57;40.30;;;;;;;-145.69;100.00;70723.91;5074867;28;20226;-76
2022/08/19 04:43:58;;;;;;;101.43;39.28;;;;;;;-145.69;100.00;70713.97;5075114;28;20194;-77
2022/08/19 04:46:27;;;;;;;89.78;37.55;;;;;;;-145.69;100.00;70733.84;5075060;28;20210;-77
2022/08/19 04:48:56;;;;;;;96.75;38.83;;;;;;;-145.69;100.00;70735.84;5074843;28;20492;-77
2022/08/19 04:51:23;;;;;;;97.70;38.50;;;;;;;-145.69;100.00;70729.88;5075155;28;20202;-76
2022/08/19 04:53:50;;;;;;;96.28;37.65;;;;;;;-145.69;100.00;70723.91;5074645;28;20662;-76
2022/08/19 04:56:19;;;;;;;90.93;36.58;;;;;;;-145.69;100.00;70725.91;5074883;28;20608;-76
2022/08/19 04:58:46;;;;;;;95.15;38.50;;;;;;;-145.69;100.00;70725.91;5074700;28;20234;-76
2022/08/19 05:01:13;;;;;;;84.97;35.60;;;;;;;-145.69;100.00;70733.84;5075058;28;20202;-76
2022/08/19 05:03:41;;;;;;;87.57;37.30;;;;;;;-145.69;100.00;70741.81;5074981;28;20206;-76
2022/08/19 05:06:10;;;;;;;91.88;37.40;;;;;;;-145.69;100.00;70753.75;5074872;28;20201;-77
2022/08/19 05:08:40;;;;;;;81.05;33.78;;;;;;;-145.69;100.00;70755.75;5074455;28;20203;-77
2022/08/19 05:11:10;;;;;;;91.65;37.60;;;;;;;-145.69;100.00;70761.72;5073448;28;20195;-77
2022/08/19 05:13:38;;;;;;;95.10;37.53;;;;;;;-145.69;100.00;70769.66;5073215;28;20195;-76
2022/08/19 05:16:04;;;;;;;94.90;38.28;;;;;;;-145.69;100.00;70761.72;5074476;28;20202;-77
2022/08/19 05:24:03;;;;;;;92.88;36.63;;;;;;;-145.69;100.00;70757.72;5071925;28;20201;-76
2022/08/19 05:26:30;;;;;;;90.68;35.63;;;;;;;-145.69;100.00;70749.78;5074496;28;20203;-76
2022/08/19 05:28:56;;;;;;;84.55;37.40;;;;;;;-145.69;100.00;70775.63;5073261;28;20211;-77
2022/08/19 05:31:22;;;;;;;85.95;37.33;;;;;;;-145.69;100.00;70783.59;5074372;28;20199;-77
2022/08/19 05:33:50;;;;;;;86.65;34.65;;;;;;;-145.69;100.00;70781.59;5072700;28;20295;-77
2022/08/19 05:36:19;;;;;;;82.18;34.40;;;;;;;-145.69;100.00;70771.66;5071517;28;20210;-77
2022/08/19 05:38:47;;;;;;;86.05;35.13;;;;;;;-145.69;100.00;70763.69;5072428;28;20692;-78
2022/08/19 05:41:14;;;;;;;78.25;32.30;;;;;;;-145.69;100.00;70757.72;5074107;28;20203;-78
2022/08/19 05:43:41;;;;;;;89.60;36.55;;;;;;;-145.69;100.00;70757.72;5073873;28;20553;-77
2022/08/19 05:46:09;;;;;;;76.00;33.83;;;;;;;-145.69;100.00;70755.75;5073600;28;20198;-76
2022/08/19 05:48:36;;;;;;;79.60;31.92;;;;;;;-145.69;100.00;70749.78;5073355;28;20235;-77
2022/08/19 05:51:05;;;;;;;80.68;35.80;;;;;;;-145.69;100.00;70765.69;5073265;28;20198;-77
2022/08/19 05:53:34;;;;;;;78.40;35.08;;;;;;;-145.69;100.00;70769.66;5073272;28;20203;-77
2022/08/19 05:56:05;;;;;;;88.65;36.10;;;;;;;-145.69;100.00;70773.66;5073042;28;20202;-77
2022/08/19 05:58:32;;;;;;;75.72;34.40;;;;;;;-145.69;100.00;70761.72;5073219;28;20297;-77
2022/08/19 06:01:04;;;;;;;85.30;36.88;;;;;;;-145.69;100.00;70753.75;5072720;28;20202;-77
2022/08/19 06:03:30;;;;;;;82.55;33.20;;;;;;;-145.69;100.00;70739.81;5073501;28;20557;-77
2022/08/19 06:05:58;;;;;;;87.40;37.13;;;;;;;-145.69;100.00;70745.78;5073592;28;20203;-77
2022/08/19 06:08:25;;;;;;;82.93;35.35;;;;;;;-145.69;100.00;70741.81;5073025;28;20191;-78
2022/08/19 06:10:53;;;;;;;77.15;39.42;;;;;;;-145.69;100.00;70737.84;5052221;28;20447;-76
2022/08/19 06:13:20;;;;;;;70.80;34.78;;;;;;;-145.69;100.00;70745.78;5053096;28;20555;-76
2022/08/19 06:15:46;;;;;;;81.60;35.95;;;;;;;-145.69;100.00;70753.75;5053315;28;20740;-76
2022/08/19 06:18:14;;;;;;;74.70;35.05;;;;;;;-145.69;100.00;70753.75;5053273;28;20227;-76
2022/08/19 06:20:41;;;;;;;74.75;34.30;;;;;;;-145.69;100.00;70753.75;5053448;28;20203;-76
2022/08/19 06:23:08;;;;;;;75.53;37.35;;;;;;;-145.69;100.00;70749.78;5053436;28;20210;-76
2022/08/19 06:25:35;;;;;;;75.75;33.42;;;;;;;-145.69;100.00;70741.81;5053233;28;20237;-76
2022/08/19 06:28:03;;;;;;;73.05;35.78;;;;;;;-145.69;100.00;70749.78;5053270;28;20203;-76
2022/08/19 06:30:30;;;;;;;74.15;35.55;;;;;;;-145.69;100.00;70733.84;5052459;28;20211;-77
2022/08/19 06:32:56;;;;;;;72.82;35.13;;;;;;;-145.69;100.00;70729.88;5053265;28;20318;-76
2022/08/19 06:35:26;;;;;;;69.45;35.80;;;;;;;-145.69;100.00;70725.91;5052774;28;20249;-75
2022/08/19 06:37:52;;;;;;;66.45;33.38;;;;;;;-145.69;100.00;70733.84;5053594;28;20234;-76
2022/08/19 06:40:19;;;;;;;67.55;35.45;;;;;;;-145.69;100.00;70743.81;5073002;28;20190;-76
2022/08/19 06:42:45;;;;;;;70.18;33.20;;;;;;;-145.69;100.00;70741.81;5073047;28;20201;-76
2022/08/19 06:45:14;;;;;;;71.85;33.38;;;;;;;-145.69;100.00;70733.84;5072822;28;20203;-75
2022/08/19 06:47:48;;;;;;;63.35;32.90;;;;;;;-145.69;100.00;70737.84;5072815;28;20230;-76
2022/08/19 06:50:14;;;;;;;70.45;33.90;;;;;;;-145.69;100.00;70735.84;5070529;28;20203;-76
2022/08/19 06:52:40;;;;;;;67.10;34.38;;;;;;;-145.69;100.00;70729.88;5072657;28;20203;-76
2022/08/19 06:55:08;;;;;;;59.20;30.65;;;;;;;-145.69;100.00;70719.94;5072700;28;20226;-76
2022/08/19 06:57:35;;;;;;;68.72;35.63;;;;;;;-145.69;100.00;70723.91;5072823;28;20206;-76
2022/08/19 07:00:01;;;;;;;62.97;32.75;;;;;;;-145.69;100.00;70729.88;5072728;28;20201;-76
2022/08/19 07:02:29;;;;;;;64.40;33.33;;;;;;;-145.69;100.00;70719.94;5072650;28;20214;-76
2022/08/19 07:04:57;;;;;;;72.78;34.60;;;;;;;-145.69;100.00;70713.97;5072450;28;20680;-76
2022/08/19 07:07:24;;;;;;;73.90;34.70;;;;;;;-145.69;100.00;70706.00;5070447;28;20195;-75
2022/08/19 07:09:52;;;;;;;67.70;34.58;;;;;;;-145.69;100.00;70706.00;5057021;28;20203;-76
2022/08/19 07:12:19;;;;;;;63.38;32.65;;;;;;;-145.69;100.00;70698.03;5052330;28;20612;-78
2022/08/19 07:14:45;;;;;;;61.90;32.08;;;;;;;-145.69;100.00;70682.13;5051715;28;20210;-77
2022/08/19 07:17:13;;;;;;;63.10;31.30;;;;;;;-145.69;100.00;70666.22;5064641;28;20202;-77
2022/08/19 07:19:42;;;;;;;58.92;32.65;;;;;;;-145.69;100.00;70674.16;5072384;28;20716;-76
2022/08/19 07:22:09;;;;;;;65.35;32.72;;;;;;;-145.69;100.00;70690.09;5072679;28;20210;-77
2022/08/19 07:24:37;;;;;;;61.00;32.42;;;;;;;-145.69;100.00;70708.00;5072582;28;20199;-77
2022/08/19 07:27:05;;;;;;;69.65;34.85;;;;;;;-145.69;100.00;70719.94;5072784;28;20198;-75
2022/08/19 07:29:34;;;;;;;69.93;35.05;;;;;;;-145.69;100.00;70713.97;5072158;28;20600;-76
2022/08/19 07:32:02;;;;;;;72.43;35.50;;;;;;;-145.69;100.00;70729.88;5072516;28;20218;-76
2022/08/19 07:34:30;;;;;;;77.22;36.30;;;;;;;-145.69;100.00;70733.84;5071862;28;20207;-75
2022/08/19 07:36:58;;;;;;;75.80;37.50;;;;;;;-145.69;100.00;70735.84;5071364;28;20210;-75
2022/08/19 07:39:28;;;;;;;69.47;35.85;;;;;;;-145.69;100.00;70737.84;5070638;28;20223;-75
2022/08/19 07:41:56;;;;;;;72.03;35.83;;;;;;;-145.69;100.00;70745.78;5072570;28;20207;-77
2022/08/19 07:44:23;;;;;;;75.93;37.10;;;;;;;-145.69;100.00;70737.84;5072241;28;20203;-77
2022/08/19 07:46:52;;;;;;;75.53;36.47;;;;;;;-145.69;100.00;70745.78;5072710;28;20264;-77
2022/08/19 07:49:20;;;;;;;79.20;37.22;;;;;;;-145.69;100.00;70737.84;5075583;28;20195;-77
2022/08/19 07:51:49;;;;;;;79.40;38.15;;;;;;;-145.69;100.00;70749.78;5075386;28;20206;-76
2022/08/19 07:54:17;;;;;;;84.50;40.63;;;;;;;-145.69;100.00;70761.72;5075601;28;20198;-75
2022/08/19 07:56:44;;;;;;;87.38;41.85;;;;;;;-145.69;100.00;70761.72;5074780;28;20205;-75
2022/08/19 07:59:11;;;;;;;86.97;42.08;;;;;;;-145.69;100.00;70751.75;5075951;28;20223;-75
2022/08/19 08:01:39;;;;;;;85.30;39.83;;;;;;;-145.69;100.00;70753.75;5075656;28;20230;-76
2022/08/19 08:09:40;;;;;;;78.88;38.28;;;;;;;-145.69;100.00;70759.72;5075875;28;20549;-77
2022/08/19 08:12:10;;;;;;;83.93;41.05;;;;;;;-145.69;100.00;70761.72;5075725;28;20202;-77
2022/08/19 08:14:41;;;;;;;87.45;40.67;;;;;;;-145.69;100.00;70761.72;5075554;28;20290;-76
2022/08/19 08:17:08;;;;;;;90.97;41.65;;;;;;;-145.69;100.00;70765.69;5075245;28;20194;-76
2022/08/19 08:19:34;;;;;;;92.72;41.38;;;;;;;-145.69;100.00;70761.72;5078983;28;20716;-75
2022/08/19 08:22:02;;;;;;;82.25;39.85;;;;;;;-145.69;100.00;70765.69;5075439;28;20653;-77
2022/08/19 08:24:31;;;;;;;85.50;40.70;;;;;;;-145.69;100.00;70765.69;5075612;28;20286;-74
2022/08/19 08:27:00;;;;;;;96.07;43.67;;;;;;;-145.69;100.00;70767.69;5075362;28;20198;-76
2022/08/19 08:29:27;;;;;;;87.57;42.50;;;;;;;-145.69;100.00;70777.63;5075398;28;20198;-76
2022/08/19 08:31:54;;;;;;;97.60;42.55;;;;;;;-145.69;100.00;70781.59;5075439;28;20207;-77
2022/08/19 08:34:21;;;;;;;95.07;44.70;;;;;;;-145.69;100.00;70781.59;5075308;28;20625;-76
2022/08/19 08:36:48;;;;;;;95.35;43.75;;;;;;;-145.69;100.00;70781.59;5075125;28;20546;-76
2022/08/19 08:39:17;;;;;;;102.63;45.97;;;;;;;-145.69;100.00;70787.56;5075229;28;20231;-76
2022/08/19 08:41:52;;;;;;;93.03;44.03;;;;;;;-145.69;100.00;70797.53;5074998;28;20206;-76
2022/08/19 08:44:23;;;;;;;101.63;44.40;;;;;;;-145.69;100.00;70797.53;5075307;28;20234;-75
2022/08/19 08:46:54;;;;;;;96.82;44.30;;;;;;;-145.69;100.00;70803.50;5075129;28;20242;-75
2022/08/19 08:49:30;;;;;;;97.40;43.85;;;;;;;-145.69;100.00;70803.50;5070550;28;20543;-75
2022/08/19 08:52:03;;;;;;;111.85;45.90;;;;;;;-145.69;100.00;70803.50;5061003;28;20206;-76
2022/08/19 08:54:33;;;;;;;106.72;46.80;;;;;;;-145.69;100.00;70805.47;5074041;28;20545;-76
2022/08/19 08:57:00;;;;;;;107.80;44.78;;;;;;;-145.69;100.00;70811.44;5073194;28;20234;-77
2022/08/19 08:59:32;;;;;;;104.88;44.70;;;;;;;-145.69;100.00;70813.44;5073500;28;20230;-78
2022/08/19 09:01:58;;;;;;;112.55;47.08;;;;;;;-145.69;100.00;70805.47;5074590;28;20199;-78
2022/08/19 09:04:25;;;;;;;119.95;53.42;;;;;;;-145.69;100.00;70805.47;5073967;28;20808;-77
2022/08/19 09:06:59;;;;;;;121.45;51.35;;;;;;;-145.69;100.00;70809.47;5074579;28;20206;-76
2022/08/19 09:09:32;;;;;;;112.60;47.97;;;;;;;-145.69;100.00;70805.47;5068456;28;20195;-76
2022/08/19 09:12:08;;;;;;;114.80;47.30;;;;;;;-145.69;100.00;70801.50;5054749;28;20200;-77
2022/08/19 09:14:46;;;;;;;123.82;48.50;;;;;;;-145.69;100.00;70805.47;5054642;28;20207;-76
2022/08/19 09:17:13;;;;;;;113.70;47.03;;;;;;;-145.69;100.00;70793.53;5054359;28;20684;-78
2022/08/19 09:19:50;;;;;;;115.47;48.03;;;;;;;-145.69;100.00;70805.47;5054528;28;20235;-77
2022/08/19 09:22:17;;;;;;;115.18;48.60;;;;;;;-145.69;100.00;70801.50;5056540;28;20558;-77
2022/08/19 09:24:43;;;;;;;116.28;47.47;;;;;;;-145.69;100.00;70801.50;5054121;28;20211;-76
2022/08/19 09:27:10;;;;;;;121.13;50.58;;;;;;;-145.69;100.00;70795.53;5058427;28;20199;-75
2022/08/19 09:29:38;;;;;;;130.13;52.30;;;;;;;-145.69;100.00;70787.56;5074118;28;20207;-76
2022/08/19 09:32:05;;;;;;;130.88;50.95;;;;;;;-145.69;100.00;70783.59;5074203;28;20203;-78
2022/08/19 09:34:32;;;;;;;127.63;51.65;;;;;;;-145.69;100.00;70783.59;5074226;28;20195;-76
2022/08/19 09:36:59;;;;;;;130.45;50.75;;;;;;;-145.69;100.00;70785.59;5074205;28;20202;-76
2022/08/19 09:39:26;;;;;;;116.32;49.65;;;;;;;-145.69;100.00;70787.56;5073932;28;20269;-77
2022/08/19 09:41:53;;;;;;;137.45;51.83;;;;;;;-145.69;100.00;70783.59;5073974;28;20202;-77
2022/08/19 09:44:21;;;;;;;134.07;51.38;;;;;;;-145.69;100.00;70791.56;5073907;28;20238;-77
2022/08/19 09:46:49;;;;;;;144.30;51.17;;;;;;;-145.69;100.00;70787.56;5073960;28;20207;-76
2022/08/19 09:49:16;;;;;;;137.63;51.88;;;;;;;-145.69;100.00;70779.63;5073822;28;20202;-76
2022/08/19 09:51:43;;;;;;;129.13;51.47;;;;;;;-145.69;100.00;70785.59;5073877;28;20205;-76
2022/08/19 09:54:10;;;;;;;136.50;51.75;;;;;;;-145.69;100.00;70785.59;5073820;28;20195;-77
2022/08/19 09:56:36;;;;;;;126.55;51.25;;;;;;;-145.69;100.00;70795.53;5073477;28;20210;-76
2022/08/19 09:59:04;;;;;;;122.03;48.80;;;;;;;-145.69;100.00;70793.53;5074040;28;20229;-77
2022/08/19 10:01:32;;;;;;;122.43;50.17;;;;;;;-145.69;100.00;70793.53;5073559;28;20421;-77
2022/08/19 10:04:01;;;;;;;121.00;48.95;;;;;;;-145.69;100.00;70789.56;5072998;28;20653;-77
2022/08/19 10:06:32;;;;;;;110.90;47.00;;;;;;;-145.69;100.00;70789.56;5073332;28;20670;-76
2022/08/19 10:08:59;;;;;;;120.05;48.08;;;;;;;-145.69;100.00;70797.53;5073131;28;20203;-76
2022/08/19 10:11:27;;;;;;;111.38;48.67;;;;;;;-145.69;100.00;70795.53;5072899;28;20206;-76
2022/08/19 10:13:54;;;;;;;127.55;51.00;;;;;;;-145.69;100.00;70797.53;5073421;28;20206;-75
2022/08/19 10:16:23;;;;;;;123.35;49.92;;;;;;;-145.69;100.00;70805.47;5073387;28;20293;-76
2022/08/19 10:18:50;;;;;;;128.45;50.38;;;;;;;-145.69;100.00;70801.50;5073325;28;20202;-76
2022/08/19 10:21:20;;;;;;;127.65;49.63;;;;;;;-145.69;100.00;70809.47;5072945;28;20202;-75
2022/08/19 10:23:50;;;;;;;119.35;49.72;;;;;;;-145.69;100.00;70809.47;5073027;28;20206;-77
2022/08/19 10:26:20;;;;;;;117.82;46.17;;;;;;;-145.69;100.00;70809.47;5073361;28;20206;-76
2022/08/19 10:28:46;;;;;;;115.32;48.35;;;;;;;-145.69;100.00;70797.53;5073152;28;20202;-78
2022/08/19 10:31:15;;;;;;;105.10;45.88;;;;;;;-145.69;100.00;70807.47;5073215;28;20199;-77
2022/08/19 10:33:42;;;;;;;103.10;46.78;;;;;;;-145.69;100.00;70809.47;5072608;28;20195;-77
2022/08/19 10:36:14;;;;;;;103.20;45.28;;;;;;;-145.69;100.00;70815.44;5073104;28;20195;-77
2022/08/19 10:38:44;;;;;;;105.47;45.47;;;;;;;-145.69;100.00;70817.41;5072972;28;20256;-76
2022/08/19 10:41:13;;;;;;;94.28;43.65;;;;;;;-145.69;100.00;70829.34;5073068;28;20202;-76
2022/08/19 10:43:40;;;;;;;82.45;41.83;;;;;;;-145.69;100.00;70825.38;5073171;28;20293;-76
2022/08/19 10:46:07;;;;;;;94.72;41.55;;;;;;;-145.69;100.00;70837.31;5072963;28;20302;-76
2022/08/19 10:48:34;;;;;;;84.47;40.55;;;;;;;-145.69;100.00;70833.34;5072869;28;20230;-78
2022/08/19 10:53:47;;;;;;;76.93;39.42;;;;;;;-145.69;100.00;70829.34;5073073;28;20210;-75
2022/08/19 10:58:58;;;;;;;86.28;41.25;;;;;;;-145.69;100.00;70825.38;5071656;28;20205;-77
2022/08/19 11:01:25;;;;;;;82.15;39.55;;;;;;;-145.69;100.00;70821.41;5072452;28;20199;-76
2022/08/19 11:03:52;;;;;;;81.03;39.38;;;;;;;-145.69;100.00;70811.44;5072850;28;20205;-76
2022/08/19 11:06:19;;;;;;;81.57;39.47;;;;;;;-145.69;100.00;70799.50;5073057;28;20561;-77
2022/08/19 11:08:46;;;;;;;67.45;36.17;;;;;;;-145.69;100.00;70797.53;5072744;28;20205;-78
2022/08/19 11:11:13;;;;;;;67.30;35.47;;;;;;;-145.69;100.00;70813.44;5072758;28;20205;-77
2022/08/19 11:13:43;;;;;;;71.25;34.90;;;;;;;-145.69;100.00;70805.47;5072651;28;20298;-78
2022/08/19 11:16:13;;;;;;;65.43;35.88;;;;;;;-145.69;100.00;70809.47;5072838;28;20275;-77